Carmi Municipal Airport


Codes: KCUL/
Name: Carmi Municipal Airport
City: Carmi
Country: United States
Elevation: 388 ft.

Photos at Carmi Municipal Airport


   Photos courtesy of SpottingLog. You can add your own sightings and photos by signing up for a free trial today.



No photos found.

Weather at Carmi Municipal Airport


Time (UTC)DescriptionTempratureWindCloud coverageVisibilityPressureHumidity
25-Jun-2024 15:00Light Rain26°C11 mph, SW29%10000m1013hPa76%
25-Jun-2024 18:00Few Clouds30°C13 mph, SW20%10000m1012hPa64%
25-Jun-2024 21:00Broken Clouds34°C13 mph, SW55%10000m1011hPa51%
26-Jun-2024 00:00Broken Clouds30°C9 mph, S64%10000m1010hPa72%
26-Jun-2024 03:00Scattered Clouds26°C9 mph, S39%10000m1010hPa81%
26-Jun-2024 06:00Scattered Clouds26°C9 mph, SW27%10000m1011hPa83%
26-Jun-2024 09:00Clear Sky25°C11 mph, SW0%10000m1009hPa79%
26-Jun-2024 12:00Scattered Clouds25°C13 mph, SW29%10000m1010hPa79%
26-Jun-2024 15:00Light Rain26°C13 mph, NW94%10000m1012hPa82%
26-Jun-2024 18:00Light Rain26°C2 mph, NW97%10000m1010hPa77%
26-Jun-2024 21:00Light Rain28°C9 mph, NW100%10000m1009hPa69%
27-Jun-2024 00:00Light Rain27°C9 mph, N66%10000m1008hPa78%
27-Jun-2024 03:00Light Rain23°C7 mph, N1%10000m1010hPa93%
27-Jun-2024 06:00Clear Sky20°C7 mph, N1%10000m1011hPa94%
27-Jun-2024 09:00Clear Sky18°C7 mph, NE0%10000m1012hPa97%
27-Jun-2024 12:00Few Clouds19°C9 mph, NE14%10000m1013hPa91%
27-Jun-2024 15:00Clear Sky23°C9 mph, NE0%10000m1014hPa67%
27-Jun-2024 18:00Clear Sky26°C7 mph, NE1%10000m1013hPa57%
27-Jun-2024 21:00Overcast Clouds27°C7 mph, NE87%10000m1012hPa51%
28-Jun-2024 00:00Overcast Clouds25°C4 mph, NE91%10000m1012hPa65%
28-Jun-2024 03:00Overcast Clouds21°C4 mph, NE92%10000m1012hPa72%
28-Jun-2024 06:00Overcast Clouds19°C7 mph, E96%10000m1011hPa78%
28-Jun-2024 09:00Overcast Clouds18°C4 mph, SE100%10000m1011hPa84%
28-Jun-2024 12:00Overcast Clouds20°C4 mph, SE100%10000m1012hPa80%
28-Jun-2024 15:00Overcast Clouds22°C4 mph, S100%10000m1012hPa73%
28-Jun-2024 18:00Overcast Clouds24°C7 mph, SE100%10000m1011hPa73%
28-Jun-2024 21:00Overcast Clouds27°C9 mph, S100%10000m1010hPa70%
29-Jun-2024 00:00Overcast Clouds26°C11 mph, SE100%10000m1009hPa83%
29-Jun-2024 03:00Broken Clouds24°C9 mph, SE76%10000m1010hPa91%
29-Jun-2024 06:00Overcast Clouds25°C11 mph, S85%10000m1009hPa80%
29-Jun-2024 09:00Broken Clouds25°C11 mph, SW71%10000m1011hPa76%
29-Jun-2024 12:00Overcast Clouds26°C9 mph, SW85%10000m1012hPa82%
29-Jun-2024 15:00Overcast Clouds29°C7 mph, SW99%10000m1013hPa73%
29-Jun-2024 18:00Light Rain32°C9 mph, W95%10000m1014hPa61%
29-Jun-2024 21:00Light Rain31°C9 mph, W100%10000m1014hPa66%
30-Jun-2024 00:00Light Rain28°C7 mph, NW93%10000m1015hPa82%
30-Jun-2024 03:00Moderate Rain24°C7 mph, SW100%1051m1018hPa95%
30-Jun-2024 06:00Light Rain23°C9 mph, N100%10000m1019hPa93%
30-Jun-2024 09:00Broken Clouds20°C9 mph, N79%10000m1020hPa95%
30-Jun-2024 12:00Broken Clouds18°C11 mph, N67%10000m1022hPa92%